sensor_id;sensor_type;location;lat;lon;timestamp;P1;durP1;ratioP1;P2;durP2;ratioP2
4248;SDS011;8404;48.752;12.922;2022-08-21T00:01:07;10.65;;;9.52;;
4248;SDS011;8404;48.752;12.922;2022-08-21T00:03:39;13.82;;;10.93;;
4248;SDS011;8404;48.752;12.922;2022-08-21T00:06:09;11.38;;;9.93;;
4248;SDS011;8404;48.752;12.922;2022-08-21T00:08:39;11.57;;;10.38;;
4248;SDS011;8404;48.752;12.922;2022-08-21T00:11:08;8.35;;;7.10;;
4248;SDS011;8404;48.752;12.922;2022-08-21T00:13:37;10.30;;;8.65;;
4248;SDS011;8404;48.752;12.922;2022-08-21T00:16:06;10.10;;;8.60;;
4248;SDS011;8404;48.752;12.922;2022-08-21T00:18:34;9.77;;;8.75;;
4248;SDS011;8404;48.752;12.922;2022-08-21T00:21:03;10.80;;;9.00;;
4248;SDS011;8404;48.752;12.922;2022-08-21T00:23:34;9.77;;;8.13;;
4248;SDS011;8404;48.752;12.922;2022-08-21T00:26:02;10.43;;;9.15;;
4248;SDS011;8404;48.752;12.922;2022-08-21T00:28:31;10.05;;;9.02;;
4248;SDS011;8404;48.752;12.922;2022-08-21T00:31:00;9.23;;;8.00;;
4248;SDS011;8404;48.752;12.922;2022-08-21T00:33:30;11.25;;;8.68;;
4248;SDS011;8404;48.752;12.922;2022-08-21T00:35:59;14.50;;;9.80;;
4248;SDS011;8404;48.752;12.922;2022-08-21T00:38:28;10.52;;;8.65;;
4248;SDS011;8404;48.752;12.922;2022-08-21T00:40:58;10.02;;;7.30;;
4248;SDS011;8404;48.752;12.922;2022-08-21T00:43:50;10.25;;;9.15;;
4248;SDS011;8404;48.752;12.922;2022-08-21T00:46:18;16.33;;;9.77;;
4248;SDS011;8404;48.752;12.922;2022-08-21T00:48:53;10.63;;;9.25;;
4248;SDS011;8404;48.752;12.922;2022-08-21T00:51:25;9.15;;;8.20;;
4248;SDS011;8404;48.752;12.922;2022-08-21T00:54:04;11.25;;;9.25;;
4248;SDS011;8404;48.752;12.922;2022-08-21T00:56:45;12.57;;;9.57;;
4248;SDS011;8404;48.752;12.922;2022-08-21T00:59:17;10.40;;;9.27;;
4248;SDS011;8404;48.752;12.922;2022-08-21T01:01:47;12.80;;;10.63;;
4248;SDS011;8404;48.752;12.922;2022-08-21T01:04:16;11.93;;;9.88;;
4248;SDS011;8404;48.752;12.922;2022-08-21T01:06:45;11.05;;;9.25;;
4248;SDS011;8404;48.752;12.922;2022-08-21T01:09:14;11.80;;;8.88;;
4248;SDS011;8404;48.752;12.922;2022-08-21T01:11:43;11.00;;;9.00;;
4248;SDS011;8404;48.752;12.922;2022-08-21T01:14:12;10.30;;;8.68;;
4248;SDS011;8404;48.752;12.922;2022-08-21T01:16:43;10.05;;;8.05;;
4248;SDS011;8404;48.752;12.922;2022-08-21T01:19:13;8.77;;;7.70;;
4248;SDS011;8404;48.752;12.922;2022-08-21T01:21:44;10.50;;;9.40;;
4248;SDS011;8404;48.752;12.922;2022-08-21T01:24:13;10.13;;;8.77;;
4248;SDS011;8404;48.752;12.922;2022-08-21T01:26:42;12.93;;;9.68;;
4248;SDS011;8404;48.752;12.922;2022-08-21T01:29:12;10.40;;;8.15;;
4248;SDS011;8404;48.752;12.922;2022-08-21T01:31:43;13.80;;;9.45;;
4248;SDS011;8404;48.752;12.922;2022-08-21T01:34:12;14.88;;;12.15;;
4248;SDS011;8404;48.752;12.922;2022-08-21T01:36:42;14.18;;;11.95;;
4248;SDS011;8404;48.752;12.922;2022-08-21T01:39:12;14.48;;;10.43;;
4248;SDS011;8404;48.752;12.922;2022-08-21T01:41:41;17.63;;;13.40;;
4248;SDS011;8404;48.752;12.922;2022-08-21T01:44:09;20.88;;;16.17;;
4248;SDS011;8404;48.752;12.922;2022-08-21T01:46:38;22.20;;;17.58;;
4248;SDS011;8404;48.752;12.922;2022-08-21T01:49:07;21.42;;;15.75;;
4248;SDS011;8404;48.752;12.922;2022-08-21T01:51:35;20.63;;;15.65;;
4248;SDS011;8404;48.752;12.922;2022-08-21T01:54:04;22.77;;;16.50;;
4248;SDS011;8404;48.752;12.922;2022-08-21T01:56:36;26.85;;;18.75;;
4248;SDS011;8404;48.752;12.922;2022-08-21T01:59:06;27.45;;;19.60;;
4248;SDS011;8404;48.752;12.922;2022-08-21T02:01:35;22.55;;;16.50;;
4248;SDS011;8404;48.752;12.922;2022-08-21T02:04:05;19.77;;;16.70;;
4248;SDS011;8404;48.752;12.922;2022-08-21T02:06:35;23.00;;;18.17;;
4248;SDS011;8404;48.752;12.922;2022-08-21T02:09:04;24.65;;;19.15;;
4248;SDS011;8404;48.752;12.922;2022-08-21T02:11:36;26.70;;;18.67;;
4248;SDS011;8404;48.752;12.922;2022-08-21T02:14:06;24.30;;;19.10;;
4248;SDS011;8404;48.752;12.922;2022-08-21T02:16:35;29.42;;;19.73;;
4248;SDS011;8404;48.752;12.922;2022-08-21T02:19:04;24.58;;;18.00;;
4248;SDS011;8404;48.752;12.922;2022-08-21T02:21:33;22.90;;;17.80;;
4248;SDS011;8404;48.752;12.922;2022-08-21T02:24:02;27.65;;;19.38;;
4248;SDS011;8404;48.752;12.922;2022-08-21T02:26:31;22.58;;;18.02;;
4248;SDS011;8404;48.752;12.922;2022-08-21T02:29:01;20.98;;;17.30;;
4248;SDS011;8404;48.752;12.922;2022-08-21T02:31:30;21.45;;;17.30;;
4248;SDS011;8404;48.752;12.922;2022-08-21T02:33:59;28.35;;;19.10;;
4248;SDS011;8404;48.752;12.922;2022-08-21T02:36:28;25.05;;;18.55;;
4248;SDS011;8404;48.752;12.922;2022-08-21T02:38:56;23.15;;;18.08;;
4248;SDS011;8404;48.752;12.922;2022-08-21T02:41:24;22.17;;;17.05;;
4248;SDS011;8404;48.752;12.922;2022-08-21T02:43:53;23.80;;;18.73;;
4248;SDS011;8404;48.752;12.922;2022-08-21T02:46:23;23.40;;;18.30;;
4248;SDS011;8404;48.752;12.922;2022-08-21T02:48:51;23.67;;;18.33;;
4248;SDS011;8404;48.752;12.922;2022-08-21T02:51:20;21.67;;;17.88;;
4248;SDS011;8404;48.752;12.922;2022-08-21T02:53:49;22.63;;;17.45;;
4248;SDS011;8404;48.752;12.922;2022-08-21T02:56:19;22.65;;;19.48;;
4248;SDS011;8404;48.752;12.922;2022-08-21T02:58:49;25.73;;;20.90;;
4248;SDS011;8404;48.752;12.922;2022-08-21T03:01:20;25.90;;;19.85;;
4248;SDS011;8404;48.752;12.922;2022-08-21T03:03:50;24.60;;;18.92;;
4248;SDS011;8404;48.752;12.922;2022-08-21T03:06:20;31.33;;;22.55;;
4248;SDS011;8404;48.752;12.922;2022-08-21T03:08:51;28.52;;;21.95;;
4248;SDS011;8404;48.752;12.922;2022-08-21T03:11:19;23.90;;;19.90;;
4248;SDS011;8404;48.752;12.922;2022-08-21T03:13:48;25.27;;;20.27;;
4248;SDS011;8404;48.752;12.922;2022-08-21T03:16:16;28.08;;;21.33;;
4248;SDS011;8404;48.752;12.922;2022-08-21T03:18:45;24.45;;;19.75;;
4248;SDS011;8404;48.752;12.922;2022-08-21T03:21:14;23.05;;;18.55;;
4248;SDS011;8404;48.752;12.922;2022-08-21T03:23:45;25.95;;;17.63;;
4248;SDS011;8404;48.752;12.922;2022-08-21T03:26:13;28.05;;;20.65;;
4248;SDS011;8404;48.752;12.922;2022-08-21T03:28:42;23.33;;;18.90;;
4248;SDS011;8404;48.752;12.922;2022-08-21T03:31:10;25.70;;;18.08;;
4248;SDS011;8404;48.752;12.922;2022-08-21T03:33:38;24.67;;;20.40;;
4248;SDS011;8404;48.752;12.922;2022-08-21T03:36:07;24.17;;;17.88;;
4248;SDS011;8404;48.752;12.922;2022-08-21T03:38:37;24.38;;;19.15;;
4248;SDS011;8404;48.752;12.922;2022-08-21T03:41:06;24.35;;;19.85;;
4248;SDS011;8404;48.752;12.922;2022-08-21T03:43:36;27.63;;;19.05;;
4248;SDS011;8404;48.752;12.922;2022-08-21T03:46:05;26.02;;;21.00;;
4248;SDS011;8404;48.752;12.922;2022-08-21T03:48:35;28.58;;;19.25;;
4248;SDS011;8404;48.752;12.922;2022-08-21T03:51:05;25.98;;;19.33;;
4248;SDS011;8404;48.752;12.922;2022-08-21T03:53:34;25.50;;;19.85;;
4248;SDS011;8404;48.752;12.922;2022-08-21T03:56:04;25.17;;;19.88;;
4248;SDS011;8404;48.752;12.922;2022-08-21T03:58:33;21.65;;;19.00;;
4248;SDS011;8404;48.752;12.922;2022-08-21T04:01:03;24.92;;;19.65;;
4248;SDS011;8404;48.752;12.922;2022-08-21T04:03:33;24.60;;;18.88;;
4248;SDS011;8404;48.752;12.922;2022-08-21T04:06:03;26.00;;;20.20;;
4248;SDS011;8404;48.752;12.922;2022-08-21T04:08:32;19.95;;;17.23;;
4248;SDS011;8404;48.752;12.922;2022-08-21T04:11:01;23.80;;;18.85;;
4248;SDS011;8404;48.752;12.922;2022-08-21T04:13:33;22.63;;;18.98;;
4248;SDS011;8404;48.752;12.922;2022-08-21T04:16:10;21.95;;;18.73;;
4248;SDS011;8404;48.752;12.922;2022-08-21T04:18:38;23.98;;;19.15;;
4248;SDS011;8404;48.752;12.922;2022-08-21T04:21:07;21.40;;;16.60;;
4248;SDS011;8404;48.752;12.922;2022-08-21T04:23:38;23.80;;;18.65;;
4248;SDS011;8404;48.752;12.922;2022-08-21T04:26:08;28.83;;;20.70;;
4248;SDS011;8404;48.752;12.922;2022-08-21T04:28:36;22.48;;;16.63;;
4248;SDS011;8404;48.752;12.922;2022-08-21T04:31:05;21.85;;;17.75;;
4248;SDS011;8404;48.752;12.922;2022-08-21T04:33:33;22.55;;;16.63;;
4248;SDS011;8404;48.752;12.922;2022-08-21T04:36:02;23.90;;;17.52;;
4248;SDS011;8404;48.752;12.922;2022-08-21T04:38:31;24.13;;;19.42;;
4248;SDS011;8404;48.752;12.922;2022-08-21T04:41:03;26.92;;;20.02;;
4248;SDS011;8404;48.752;12.922;2022-08-21T04:43:34;22.25;;;18.35;;
4248;SDS011;8404;48.752;12.922;2022-08-21T04:46:02;23.67;;;18.58;;
4248;SDS011;8404;48.752;12.922;2022-08-21T04:48:31;24.83;;;19.63;;
4248;SDS011;8404;48.752;12.922;2022-08-21T04:51:01;20.23;;;15.45;;
4248;SDS011;8404;48.752;12.922;2022-08-21T04:53:33;26.00;;;18.58;;
4248;SDS011;8404;48.752;12.922;2022-08-21T04:56:05;22.60;;;17.35;;
4248;SDS011;8404;48.752;12.922;2022-08-21T04:58:40;24.98;;;17.95;;
4248;SDS011;8404;48.752;12.922;2022-08-21T05:01:11;22.35;;;16.88;;
4248;SDS011;8404;48.752;12.922;2022-08-21T05:03:43;25.30;;;18.35;;
4248;SDS011;8404;48.752;12.922;2022-08-21T05:06:13;22.30;;;17.92;;
4248;SDS011;8404;48.752;12.922;2022-08-21T05:08:43;26.52;;;19.55;;
4248;SDS011;8404;48.752;12.922;2022-08-21T05:11:15;22.08;;;18.42;;
4248;SDS011;8404;48.752;12.922;2022-08-21T05:13:45;22.77;;;18.77;;
4248;SDS011;8404;48.752;12.922;2022-08-21T05:16:20;23.25;;;17.13;;
4248;SDS011;8404;48.752;12.922;2022-08-21T05:19:03;21.00;;;17.15;;
4248;SDS011;8404;48.752;12.922;2022-08-21T05:21:31;21.13;;;17.20;;
4248;SDS011;8404;48.752;12.922;2022-08-21T05:24:00;20.98;;;16.67;;
4248;SDS011;8404;48.752;12.922;2022-08-21T05:26:29;22.20;;;17.67;;
4248;SDS011;8404;48.752;12.922;2022-08-21T05:28:59;19.50;;;16.17;;
4248;SDS011;8404;48.752;12.922;2022-08-21T05:31:27;23.70;;;18.83;;
4248;SDS011;8404;48.752;12.922;2022-08-21T05:33:56;19.70;;;16.30;;
4248;SDS011;8404;48.752;12.922;2022-08-21T05:36:24;24.27;;;17.85;;
4248;SDS011;8404;48.752;12.922;2022-08-21T05:38:53;23.33;;;17.55;;
4248;SDS011;8404;48.752;12.922;2022-08-21T05:41:22;20.92;;;16.88;;
4248;SDS011;8404;48.752;12.922;2022-08-21T05:43:50;21.13;;;17.10;;
4248;SDS011;8404;48.752;12.922;2022-08-21T05:46:19;19.38;;;16.42;;
4248;SDS011;8404;48.752;12.922;2022-08-21T05:51:41;23.95;;;17.98;;
4248;SDS011;8404;48.752;12.922;2022-08-21T05:54:10;21.25;;;16.77;;
4248;SDS011;8404;48.752;12.922;2022-08-21T05:56:38;15.80;;;13.73;;
4248;SDS011;8404;48.752;12.922;2022-08-21T05:59:10;19.35;;;16.33;;
4248;SDS011;8404;48.752;12.922;2022-08-21T06:01:41;17.42;;;15.18;;
4248;SDS011;8404;48.752;12.922;2022-08-21T06:04:09;20.98;;;15.82;;
4248;SDS011;8404;48.752;12.922;2022-08-21T06:06:37;20.60;;;16.83;;
4248;SDS011;8404;48.752;12.922;2022-08-21T06:09:06;25.90;;;18.42;;
4248;SDS011;8404;48.752;12.922;2022-08-21T06:11:34;19.42;;;15.13;;
4248;SDS011;8404;48.752;12.922;2022-08-21T06:14:03;21.20;;;16.20;;
4248;SDS011;8404;48.752;12.922;2022-08-21T06:16:33;20.52;;;14.93;;
4248;SDS011;8404;48.752;12.922;2022-08-21T06:19:02;18.70;;;15.52;;
4248;SDS011;8404;48.752;12.922;2022-08-21T06:21:30;20.90;;;16.35;;
4248;SDS011;8404;48.752;12.922;2022-08-21T06:23:59;20.65;;;16.15;;
4248;SDS011;8404;48.752;12.922;2022-08-21T06:26:27;18.33;;;16.30;;
4248;SDS011;8404;48.752;12.922;2022-08-21T06:28:56;18.40;;;14.55;;
4248;SDS011;8404;48.752;12.922;2022-08-21T06:31:25;17.13;;;14.00;;
4248;SDS011;8404;48.752;12.922;2022-08-21T06:33:54;19.23;;;14.88;;
4248;SDS011;8404;48.752;12.922;2022-08-21T06:36:25;19.65;;;16.13;;
4248;SDS011;8404;48.752;12.922;2022-08-21T06:38:53;17.70;;;15.48;;
4248;SDS011;8404;48.752;12.922;2022-08-21T06:41:23;17.77;;;14.85;;
4248;SDS011;8404;48.752;12.922;2022-08-21T06:43:52;15.77;;;13.55;;
4248;SDS011;8404;48.752;12.922;2022-08-21T06:46:21;18.42;;;15.57;;
4248;SDS011;8404;48.752;12.922;2022-08-21T06:48:49;15.93;;;14.23;;
4248;SDS011;8404;48.752;12.922;2022-08-21T06:51:18;17.25;;;15.45;;
4248;SDS011;8404;48.752;12.922;2022-08-21T06:53:48;18.17;;;15.60;;
4248;SDS011;8404;48.752;12.922;2022-08-21T06:56:17;18.65;;;15.48;;
4248;SDS011;8404;48.752;12.922;2022-08-21T06:58:45;15.98;;;14.32;;
4248;SDS011;8404;48.752;12.922;2022-08-21T07:01:14;18.77;;;14.95;;
4248;SDS011;8404;48.752;12.922;2022-08-21T07:03:42;17.02;;;14.48;;
4248;SDS011;8404;48.752;12.922;2022-08-21T07:06:11;17.92;;;14.88;;
4248;SDS011;8404;48.752;12.922;2022-08-21T07:08:39;16.45;;;14.40;;
4248;SDS011;8404;48.752;12.922;2022-08-21T07:11:11;15.93;;;13.55;;
4248;SDS011;8404;48.752;12.922;2022-08-21T07:13:44;16.73;;;13.85;;
4248;SDS011;8404;48.752;12.922;2022-08-21T07:16:13;16.15;;;14.07;;
4248;SDS011;8404;48.752;12.922;2022-08-21T07:18:41;17.50;;;13.55;;
4248;SDS011;8404;48.752;12.922;2022-08-21T07:21:09;17.75;;;14.73;;
4248;SDS011;8404;48.752;12.922;2022-08-21T07:23:39;16.20;;;12.85;;
4248;SDS011;8404;48.752;12.922;2022-08-21T07:26:10;17.92;;;13.82;;
4248;SDS011;8404;48.752;12.922;2022-08-21T07:28:39;15.18;;;13.50;;
4248;SDS011;8404;48.752;12.922;2022-08-21T07:31:08;17.00;;;13.63;;
4248;SDS011;8404;48.752;12.922;2022-08-21T07:33:40;13.85;;;12.35;;
4248;SDS011;8404;48.752;12.922;2022-08-21T07:36:09;17.35;;;15.38;;
4248;SDS011;8404;48.752;12.922;2022-08-21T07:38:38;17.70;;;14.75;;
4248;SDS011;8404;48.752;12.922;2022-08-21T07:41:08;16.10;;;13.38;;
4248;SDS011;8404;48.752;12.922;2022-08-21T07:43:41;16.23;;;13.85;;
4248;SDS011;8404;48.752;12.922;2022-08-21T07:46:11;17.38;;;15.25;;
4248;SDS011;8404;48.752;12.922;2022-08-21T07:48:40;17.38;;;13.52;;
4248;SDS011;8404;48.752;12.922;2022-08-21T07:51:10;16.02;;;14.20;;
4248;SDS011;8404;48.752;12.922;2022-08-21T07:53:41;16.25;;;13.48;;
4248;SDS011;8404;48.752;12.922;2022-08-21T07:56:10;15.25;;;12.93;;
4248;SDS011;8404;48.752;12.922;2022-08-21T07:58:40;15.25;;;12.98;;
4248;SDS011;8404;48.752;12.922;2022-08-21T08:01:08;13.63;;;12.23;;
4248;SDS011;8404;48.752;12.922;2022-08-21T08:03:37;16.70;;;13.63;;
4248;SDS011;8404;48.752;12.922;2022-08-21T08:06:06;14.80;;;12.70;;
4248;SDS011;8404;48.752;12.922;2022-08-21T08:08:38;12.88;;;11.50;;
4248;SDS011;8404;48.752;12.922;2022-08-21T08:11:08;15.13;;;13.15;;
4248;SDS011;8404;48.752;12.922;2022-08-21T08:13:39;13.27;;;11.88;;
4248;SDS011;8404;48.752;12.922;2022-08-21T08:16:09;14.45;;;12.30;;
4248;SDS011;8404;48.752;12.922;2022-08-21T08:18:37;14.13;;;11.85;;
4248;SDS011;8404;48.752;12.922;2022-08-21T08:21:08;15.82;;;13.30;;
4248;SDS011;8404;48.752;12.922;2022-08-21T08:23:37;14.45;;;12.80;;
4248;SDS011;8404;48.752;12.922;2022-08-21T08:26:06;14.75;;;12.75;;
4248;SDS011;8404;48.752;12.922;2022-08-21T08:28:34;16.38;;;13.65;;
4248;SDS011;8404;48.752;12.922;2022-08-21T08:31:04;15.23;;;13.45;;
4248;SDS011;8404;48.752;12.922;2022-08-21T08:33:32;14.75;;;13.25;;
4248;SDS011;8404;48.752;12.922;2022-08-21T08:36:01;15.25;;;13.65;;
4248;SDS011;8404;48.752;12.922;2022-08-21T08:38:33;16.10;;;14.23;;
4248;SDS011;8404;48.752;12.922;2022-08-21T08:41:10;15.23;;;13.60;;
4248;SDS011;8404;48.752;12.922;2022-08-21T08:43:41;15.15;;;13.05;;
4248;SDS011;8404;48.752;12.922;2022-08-21T08:46:19;14.32;;;12.82;;
4248;SDS011;8404;48.752;12.922;2022-08-21T08:48:54;14.18;;;12.68;;
4248;SDS011;8404;48.752;12.922;2022-08-21T08:54:06;15.45;;;13.93;;
4248;SDS011;8404;48.752;12.922;2022-08-21T08:56:39;15.25;;;13.65;;
4248;SDS011;8404;48.752;12.922;2022-08-21T08:59:08;14.82;;;13.27;;
4248;SDS011;8404;48.752;12.922;2022-08-21T09:01:44;16.60;;;13.60;;
4248;SDS011;8404;48.752;12.922;2022-08-21T09:04:13;15.40;;;13.90;;
4248;SDS011;8404;48.752;12.922;2022-08-21T09:06:56;13.93;;;11.98;;
4248;SDS011;8404;48.752;12.922;2022-08-21T09:09:35;15.23;;;13.52;;
4248;SDS011;8404;48.752;12.922;2022-08-21T09:12:15;14.93;;;13.38;;
4248;SDS011;8404;48.752;12.922;2022-08-21T09:14:53;15.18;;;13.02;;
4248;SDS011;8404;48.752;12.922;2022-08-21T09:17:35;14.60;;;13.10;;
4248;SDS011;8404;48.752;12.922;2022-08-21T09:20:19;15.18;;;13.68;;
4248;SDS011;8404;48.752;12.922;2022-08-21T09:22:58;14.60;;;12.43;;
4248;SDS011;8404;48.752;12.922;2022-08-21T09:25:38;14.50;;;13.07;;
4248;SDS011;8404;48.752;12.922;2022-08-21T09:28:10;15.07;;;13.40;;
4248;SDS011;8404;48.752;12.922;2022-08-21T09:30:40;14.32;;;12.68;;
4248;SDS011;8404;48.752;12.922;2022-08-21T09:33:11;14.27;;;12.88;;
4248;SDS011;8404;48.752;12.922;2022-08-21T09:35:50;15.52;;;13.40;;
4248;SDS011;8404;48.752;12.922;2022-08-21T09:38:25;14.63;;;12.93;;
4248;SDS011;8404;48.752;12.922;2022-08-21T09:40:56;14.30;;;12.85;;
4248;SDS011;8404;48.752;12.922;2022-08-21T09:43:27;14.35;;;12.93;;
4248;SDS011;8404;48.752;12.922;2022-08-21T09:46:07;14.70;;;12.88;;
4248;SDS011;8404;48.752;12.922;2022-08-21T09:48:40;13.77;;;12.38;;
4248;SDS011;8404;48.752;12.922;2022-08-21T09:51:11;15.77;;;11.20;;
4248;SDS011;8404;48.752;12.922;2022-08-21T09:53:43;17.35;;;13.18;;
4248;SDS011;8404;48.752;12.922;2022-08-21T09:56:22;13.35;;;11.95;;
4248;SDS011;8404;48.752;12.922;2022-08-21T09:59:13;13.30;;;11.75;;
4248;SDS011;8404;48.752;12.922;2022-08-21T10:01:44;13.40;;;11.80;;
4248;SDS011;8404;48.752;12.922;2022-08-21T10:04:18;13.73;;;12.32;;
4248;SDS011;8404;48.752;12.922;2022-08-21T10:06:49;11.27;;;9.93;;
4248;SDS011;8404;48.752;12.922;2022-08-21T10:09:22;13.63;;;12.25;;
4248;SDS011;8404;48.752;12.922;2022-08-21T10:11:56;14.02;;;12.13;;
4248;SDS011;8404;48.752;12.922;2022-08-21T10:17:14;13.88;;;12.07;;
4248;SDS011;8404;48.752;12.922;2022-08-21T10:19:51;10.82;;;9.73;;
4248;SDS011;8404;48.752;12.922;2022-08-21T10:22:32;11.68;;;10.50;;
4248;SDS011;8404;48.752;12.922;2022-08-21T10:25:09;11.35;;;10.25;;
4248;SDS011;8404;48.752;12.922;2022-08-21T10:27:47;12.48;;;10.40;;
4248;SDS011;8404;48.752;12.922;2022-08-21T10:30:25;13.80;;;12.27;;
4248;SDS011;8404;48.752;12.922;2022-08-21T10:33:03;11.65;;;10.45;;
4248;SDS011;8404;48.752;12.922;2022-08-21T10:35:44;11.52;;;10.43;;
4248;SDS011;8404;48.752;12.922;2022-08-21T10:41:43;11.77;;;10.45;;
4248;SDS011;8404;48.752;12.922;2022-08-21T10:44:28;12.00;;;10.63;;
4248;SDS011;8404;48.752;12.922;2022-08-21T10:47:12;13.68;;;12.27;;
4248;SDS011;8404;48.752;12.922;2022-08-21T10:49:47;12.88;;;10.60;;
4248;SDS011;8404;48.752;12.922;2022-08-21T10:52:28;13.18;;;11.55;;
4248;SDS011;8404;48.752;12.922;2022-08-21T10:55:10;11.43;;;10.23;;
4248;SDS011;8404;48.752;12.922;2022-08-21T10:57:42;10.02;;;9.02;;
4248;SDS011;8404;48.752;12.922;2022-08-21T11:00:16;9.77;;;8.77;;
4248;SDS011;8404;48.752;12.922;2022-08-21T11:02:49;8.77;;;7.68;;
4248;SDS011;8404;48.752;12.922;2022-08-21T11:05:24;11.60;;;9.90;;
4248;SDS011;8404;48.752;12.922;2022-08-21T11:08:00;10.75;;;9.68;;
4248;SDS011;8404;48.752;12.922;2022-08-21T11:10:34;11.48;;;9.98;;
4248;SDS011;8404;48.752;12.922;2022-08-21T11:13:26;10.52;;;9.02;;
4248;SDS011;8404;48.752;12.922;2022-08-21T11:16:00;9.35;;;8.40;;
4248;SDS011;8404;48.752;12.922;2022-08-21T11:18:34;11.75;;;9.90;;
4248;SDS011;8404;48.752;12.922;2022-08-21T11:21:08;9.65;;;8.65;;
4248;SDS011;8404;48.752;12.922;2022-08-21T11:23:50;11.38;;;10.23;;
4248;SDS011;8404;48.752;12.922;2022-08-21T11:26:30;12.00;;;10.70;;
4248;SDS011;8404;48.752;12.922;2022-08-21T11:29:04;9.98;;;8.93;;
4248;SDS011;8404;48.752;12.922;2022-08-21T11:31:40;8.27;;;7.47;;
4248;SDS011;8404;48.752;12.922;2022-08-21T11:34:18;9.65;;;8.30;;
4248;SDS011;8404;48.752;12.922;2022-08-21T11:36:58;10.15;;;9.05;;
4248;SDS011;8404;48.752;12.922;2022-08-21T11:39:37;9.93;;;8.55;;
4248;SDS011;8404;48.752;12.922;2022-08-21T11:42:14;10.63;;;9.48;;
4248;SDS011;8404;48.752;12.922;2022-08-21T11:44:53;10.90;;;9.75;;
4248;SDS011;8404;48.752;12.922;2022-08-21T11:47:31;10.15;;;9.15;;
4248;SDS011;8404;48.752;12.922;2022-08-21T11:50:11;10.05;;;8.80;;
4248;SDS011;8404;48.752;12.922;2022-08-21T11:53:02;8.80;;;7.90;;
4248;SDS011;8404;48.752;12.922;2022-08-21T11:55:38;10.98;;;8.32;;
4248;SDS011;8404;48.752;12.922;2022-08-21T11:58:11;10.93;;;9.82;;
4248;SDS011;8404;48.752;12.922;2022-08-21T12:00:47;7.70;;;6.90;;
4248;SDS011;8404;48.752;12.922;2022-08-21T12:03:21;8.10;;;7.30;;
4248;SDS011;8404;48.752;12.922;2022-08-21T12:05:54;8.52;;;7.63;;
4248;SDS011;8404;48.752;12.922;2022-08-21T12:08:28;6.82;;;6.13;;
4248;SDS011;8404;48.752;12.922;2022-08-21T12:11:01;8.40;;;7.18;;
4248;SDS011;8404;48.752;12.922;2022-08-21T12:13:33;7.18;;;6.47;;
4248;SDS011;8404;48.752;12.922;2022-08-21T12:16:11;9.50;;;8.43;;
4248;SDS011;8404;48.752;12.922;2022-08-21T12:18:42;7.50;;;6.80;;
4248;SDS011;8404;48.752;12.922;2022-08-21T12:21:19;8.30;;;6.95;;
4248;SDS011;8404;48.752;12.922;2022-08-21T12:23:57;7.38;;;6.43;;
4248;SDS011;8404;48.752;12.922;2022-08-21T12:26:33;6.38;;;5.78;;
4248;SDS011;8404;48.752;12.922;2022-08-21T12:29:16;5.72;;;5.18;;
4248;SDS011;8404;48.752;12.922;2022-08-21T12:31:53;8.63;;;6.05;;
4248;SDS011;8404;48.752;12.922;2022-08-21T12:34:24;5.50;;;4.65;;
4248;SDS011;8404;48.752;12.922;2022-08-21T12:36:58;5.70;;;4.38;;
4248;SDS011;8404;48.752;12.922;2022-08-21T12:39:30;6.28;;;4.72;;
4248;SDS011;8404;48.752;12.922;2022-08-21T12:42:03;6.50;;;4.95;;
4248;SDS011;8404;48.752;12.922;2022-08-21T12:44:38;5.82;;;5.22;;
4248;SDS011;8404;48.752;12.922;2022-08-21T12:47:17;6.53;;;5.45;;
4248;SDS011;8404;48.752;12.922;2022-08-21T12:49:56;6.35;;;5.32;;
4248;SDS011;8404;48.752;12.922;2022-08-21T12:52:33;6.25;;;4.90;;
4248;SDS011;8404;48.752;12.922;2022-08-21T12:55:06;7.28;;;6.57;;
4248;SDS011;8404;48.752;12.922;2022-08-21T12:57:40;5.75;;;5.05;;
4248;SDS011;8404;48.752;12.922;2022-08-21T13:00:10;5.68;;;4.85;;
4248;SDS011;8404;48.752;12.922;2022-08-21T13:02:42;4.80;;;4.30;;
4248;SDS011;8404;48.752;12.922;2022-08-21T13:05:18;5.43;;;4.57;;
4248;SDS011;8404;48.752;12.922;2022-08-21T13:07:51;5.05;;;4.05;;
4248;SDS011;8404;48.752;12.922;2022-08-21T13:10:20;7.57;;;5.53;;
4248;SDS011;8404;48.752;12.922;2022-08-21T13:12:52;5.22;;;4.60;;
4248;SDS011;8404;48.752;12.922;2022-08-21T13:15:23;4.72;;;4.15;;
4248;SDS011;8404;48.752;12.922;2022-08-21T13:17:59;4.90;;;4.07;;
4248;SDS011;8404;48.752;12.922;2022-08-21T13:20:30;6.57;;;5.45;;
4248;SDS011;8404;48.752;12.922;2022-08-21T13:23:01;5.47;;;4.53;;
4248;SDS011;8404;48.752;12.922;2022-08-21T13:25:33;5.30;;;4.13;;
4248;SDS011;8404;48.752;12.922;2022-08-21T13:28:06;4.85;;;3.80;;
4248;SDS011;8404;48.752;12.922;2022-08-21T13:30:39;4.43;;;4.03;;
4248;SDS011;8404;48.752;12.922;2022-08-21T13:33:09;4.50;;;4.10;;
4248;SDS011;8404;48.752;12.922;2022-08-21T13:35:46;5.80;;;4.68;;
4248;SDS011;8404;48.752;12.922;2022-08-21T13:38:17;4.88;;;3.80;;
4248;SDS011;8404;48.752;12.922;2022-08-21T13:40:54;5.00;;;4.00;;
4248;SDS011;8404;48.752;12.922;2022-08-21T13:43:28;4.82;;;3.60;;
4248;SDS011;8404;48.752;12.922;2022-08-21T13:46:00;4.88;;;3.58;;
4248;SDS011;8404;48.752;12.922;2022-08-21T13:48:30;4.10;;;3.70;;
4248;SDS011;8404;48.752;12.922;2022-08-21T13:51:01;3.15;;;2.75;;
4248;SDS011;8404;48.752;12.922;2022-08-21T13:53:31;3.25;;;2.65;;
4248;SDS011;8404;48.752;12.922;2022-08-21T13:56:03;3.20;;;2.63;;
4248;SDS011;8404;48.752;12.922;2022-08-21T13:58:41;2.95;;;2.53;;
4248;SDS011;8404;48.752;12.922;2022-08-21T14:01:17;2.80;;;2.22;;
4248;SDS011;8404;48.752;12.922;2022-08-21T14:03:49;4.05;;;2.38;;
4248;SDS011;8404;48.752;12.922;2022-08-21T14:06:21;3.78;;;2.40;;
4248;SDS011;8404;48.752;12.922;2022-08-21T14:08:52;3.38;;;2.67;;
4248;SDS011;8404;48.752;12.922;2022-08-21T14:11:24;2.58;;;2.25;;
4248;SDS011;8404;48.752;12.922;2022-08-21T14:13:58;3.80;;;2.70;;
4248;SDS011;8404;48.752;12.922;2022-08-21T14:16:40;3.85;;;2.67;;
4248;SDS011;8404;48.752;12.922;2022-08-21T14:19:18;3.15;;;2.67;;
4248;SDS011;8404;48.752;12.922;2022-08-21T14:21:48;3.75;;;3.03;;
4248;SDS011;8404;48.752;12.922;2022-08-21T14:24:24;3.78;;;2.40;;
4248;SDS011;8404;48.752;12.922;2022-08-21T14:26:55;3.15;;;2.45;;
4248;SDS011;8404;48.752;12.922;2022-08-21T14:29:27;2.88;;;2.42;;
4248;SDS011;8404;48.752;12.922;2022-08-21T14:32:00;3.25;;;2.10;;
4248;SDS011;8404;48.752;12.922;2022-08-21T14:34:50;2.60;;;1.98;;
4248;SDS011;8404;48.752;12.922;2022-08-21T14:37:20;3.70;;;2.17;;
4248;SDS011;8404;48.752;12.922;2022-08-21T14:39:48;4.93;;;2.63;;
4248;SDS011;8404;48.752;12.922;2022-08-21T14:42:17;5.80;;;2.75;;
4248;SDS011;8404;48.752;12.922;2022-08-21T14:44:48;2.60;;;2.17;;
4248;SDS011;8404;48.752;12.922;2022-08-21T14:47:16;5.07;;;2.17;;
4248;SDS011;8404;48.752;12.922;2022-08-21T14:49:45;2.97;;;2.20;;
4248;SDS011;8404;48.752;12.922;2022-08-21T14:52:13;2.70;;;2.42;;
4248;SDS011;8404;48.752;12.922;2022-08-21T14:54:41;2.13;;;1.75;;
4248;SDS011;8404;48.752;12.922;2022-08-21T14:57:10;3.05;;;1.92;;
4248;SDS011;8404;48.752;12.922;2022-08-21T14:59:39;2.30;;;1.50;;
4248;SDS011;8404;48.752;12.922;2022-08-21T15:02:10;2.83;;;2.03;;
4248;SDS011;8404;48.752;12.922;2022-08-21T15:04:39;2.83;;;2.33;;
4248;SDS011;8404;48.752;12.922;2022-08-21T15:07:08;3.60;;;2.80;;
4248;SDS011;8404;48.752;12.922;2022-08-21T15:09:36;2.90;;;2.35;;
4248;SDS011;8404;48.752;12.922;2022-08-21T15:12:05;3.17;;;2.40;;
4248;SDS011;8404;48.752;12.922;2022-08-21T15:14:35;2.58;;;2.08;;
4248;SDS011;8404;48.752;12.922;2022-08-21T15:17:06;2.97;;;2.33;;
4248;SDS011;8404;48.752;12.922;2022-08-21T15:19:37;3.95;;;2.03;;
4248;SDS011;8404;48.752;12.922;2022-08-21T15:22:06;3.20;;;2.00;;